KFOT

Rohnerville Airport

Fortuna, California, USA
METAR KFOT 210655Z AUTO 33008KT 10SM OVC013 10/08 A3004 RMK AO1
Observed Flight Rules
May-21 @ 06:55 UTC (16 minutes ago) Marginal Visual Flight Rules
Wind Visibility Clouds
330° at 8 knots 10 miles
  • Overcast at 1,300' AGL
Temperatures Readings
Current 10°C / 50°F
Dewpoint 8°C / 46°F
Humidity 88%
Altimeter 30.04" Hg
Pressure 1017 hPa
Elevation 120
METAR KFOT 210655Z AUTO 33008KT 10SM OVC013 10/08 A3004 RMK AO1
Observed Flight Rules
May-21 @ 06:55 UTC
(16 minutes ago)
MVFR
Wind Visibility
330° at 8 knots 10 miles
Clouds
  • Overcast at 1,300' AGL
Temperature Dewpoint
10°C / 50°F 8°C / 46°F
Humidity Altimeter Pressure
88% 30.04" Hg 1017 hPa